sensor_id;sensor_type;location;lat;lon;timestamp;pressure;altitude;pressure_sealevel;temperature;humidity
12781;BME280;6454;43.304;24.344;2023-03-21T00:01:15;100175.66;;;9.13;74.48
12781;BME280;6454;43.304;24.344;2023-03-21T00:03:44;100138.44;;;8.89;74.59
12781;BME280;6454;43.304;24.344;2023-03-21T00:06:12;100161.88;;;9.14;74.88
12781;BME280;6454;43.304;24.344;2023-03-21T00:08:39;100164.59;;;9.09;74.58
12781;BME280;6454;43.304;24.344;2023-03-21T00:11:08;100157.84;;;9.01;74.57
12781;BME280;6454;43.304;24.344;2023-03-21T00:13:36;100150.81;;;9.00;74.98
12781;BME280;6454;43.304;24.344;2023-03-21T00:16:08;100156.22;;;9.00;75.29
12781;BME280;6454;43.304;24.344;2023-03-21T00:18:40;100151.63;;;9.01;75.62
12781;BME280;6454;43.304;24.344;2023-03-21T00:21:10;100150.25;;;9.08;75.16
12781;BME280;6454;43.304;24.344;2023-03-21T00:23:40;100084.44;;;8.59;75.16
12781;BME280;6454;43.304;24.344;2023-03-21T00:26:07;100139.97;;;9.11;75.24
12781;BME280;6454;43.304;24.344;2023-03-21T00:28:35;100148.13;;;9.00;75.23
12781;BME280;6454;43.304;24.344;2023-03-21T00:31:14;100150.84;;;8.90;75.87
12781;BME280;6454;43.304;24.344;2023-03-21T00:33:41;100144.91;;;8.88;75.95
12781;BME280;6454;43.304;24.344;2023-03-21T00:36:10;100158.19;;;8.85;76.03
12781;BME280;6454;43.304;24.344;2023-03-21T00:38:37;100155.19;;;8.86;76.49
12781;BME280;6454;43.304;24.344;2023-03-21T00:41:05;100149.28;;;8.74;76.55
12781;BME280;6454;43.304;24.344;2023-03-21T00:43:33;100159.56;;;8.82;76.54
12781;BME280;6454;43.304;24.344;2023-03-21T00:46:00;100149.50;;;8.83;76.07
12781;BME280;6454;43.304;24.344;2023-03-21T00:48:28;100140.06;;;8.75;76.12
12781;BME280;6454;43.304;24.344;2023-03-21T00:50:56;100152.78;;;8.85;76.10
12781;BME280;6454;43.304;24.344;2023-03-21T00:53:25;100149.78;;;8.86;75.94
12781;BME280;6454;43.304;24.344;2023-03-21T00:55:53;100150.31;;;8.93;76.12
12781;BME280;6454;43.304;24.344;2023-03-21T00:58:20;100148.16;;;8.85;75.92
12781;BME280;6454;43.304;24.344;2023-03-21T01:00:47;100133.84;;;8.90;76.21
12781;BME280;6454;43.304;24.344;2023-03-21T01:03:15;100139.47;;;8.98;76.10
12781;BME280;6454;43.304;24.344;2023-03-21T01:05:47;100138.44;;;8.84;76.33
12781;BME280;6454;43.304;24.344;2023-03-21T01:08:34;100134.94;;;8.74;76.07
12781;BME280;6454;43.304;24.344;2023-03-21T01:11:03;100068.00;;;8.30;76.64
12781;BME280;6454;43.304;24.344;2023-03-21T01:13:30;100126.56;;;8.70;76.81
12781;BME280;6454;43.304;24.344;2023-03-21T01:15:58;100122.25;;;8.69;76.84
12781;BME280;6454;43.304;24.344;2023-03-21T01:18:27;100134.09;;;8.83;76.71
12781;BME280;6454;43.304;24.344;2023-03-21T01:20:56;100137.09;;;8.77;76.41
12781;BME280;6454;43.304;24.344;2023-03-21T01:23:24;100146.31;;;8.71;76.49
12781;BME280;6454;43.304;24.344;2023-03-21T01:25:54;100136.31;;;8.61;77.45
12781;BME280;6454;43.304;24.344;2023-03-21T01:28:23;100134.44;;;8.62;77.29
12781;BME280;6454;43.304;24.344;2023-03-21T01:30:51;100130.91;;;8.71;76.70
12781;BME280;6454;43.304;24.344;2023-03-21T01:33:18;100133.06;;;8.69;77.21
12781;BME280;6454;43.304;24.344;2023-03-21T01:35:46;100135.22;;;8.77;77.13
12781;BME280;6454;43.304;24.344;2023-03-21T01:38:12;100129.25;;;8.80;77.24
12781;BME280;6454;43.304;24.344;2023-03-21T01:40:39;100135.75;;;8.79;77.22
12781;BME280;6454;43.304;24.344;2023-03-21T01:43:19;100134.94;;;8.74;77.64
12781;BME280;6454;43.304;24.344;2023-03-21T01:48:50;100104.19;;;8.45;77.46
12781;BME280;6454;43.304;24.344;2023-03-21T01:51:19;100150.63;;;8.82;77.28
12781;BME280;6454;43.304;24.344;2023-03-21T01:53:47;100145.75;;;8.79;77.26
12781;BME280;6454;43.304;24.344;2023-03-21T01:56:17;100152.22;;;8.78;76.81
12781;BME280;6454;43.304;24.344;2023-03-21T01:58:48;100143.88;;;8.74;76.79
12781;BME280;6454;43.304;24.344;2023-03-21T02:01:16;100137.13;;;8.67;76.80
12781;BME280;6454;43.304;24.344;2023-03-21T02:03:47;100140.06;;;8.75;76.55
12781;BME280;6454;43.304;24.344;2023-03-21T02:06:27;100134.13;;;8.78;76.43
12781;BME280;6454;43.304;24.344;2023-03-21T02:08:59;100147.38;;;8.85;77.20
12781;BME280;6454;43.304;24.344;2023-03-21T02:11:29;100154.13;;;8.82;77.40
12781;BME280;6454;43.304;24.344;2023-03-21T02:13:59;100150.34;;;8.73;77.73
12781;BME280;6454;43.304;24.344;2023-03-21T02:16:33;100153.03;;;8.78;77.60
12781;BME280;6454;43.304;24.344;2023-03-21T02:19:23;100158.44;;;8.83;76.97
12781;BME280;6454;43.304;24.344;2023-03-21T02:27:54;100162.53;;;8.76;77.75
12781;BME280;6454;43.304;24.344;2023-03-21T02:31:03;100165.50;;;8.74;77.79
12781;BME280;6454;43.304;24.344;2023-03-21T02:33:57;100113.91;;;8.35;77.83
12781;BME280;6454;43.304;24.344;2023-03-21T02:36:49;100151.72;;;8.71;78.10
12781;BME280;6454;43.304;24.344;2023-03-21T02:39:21;100149.81;;;8.76;77.90
12781;BME280;6454;43.304;24.344;2023-03-21T02:41:54;100157.38;;;8.84;77.73
12781;BME280;6454;43.304;24.344;2023-03-21T02:44:30;100151.16;;;8.79;78.26
12781;BME280;6454;43.304;24.344;2023-03-21T02:47:02;100144.41;;;8.76;78.35
12781;BME280;6454;43.304;24.344;2023-03-21T02:49:34;100156.84;;;8.77;78.51
12781;BME280;6454;43.304;24.344;2023-03-21T02:52:12;100160.09;;;8.74;78.79
12781;BME280;6454;43.304;24.344;2023-03-21T02:54:41;100171.16;;;8.78;78.71
12781;BME280;6454;43.304;24.344;2023-03-21T02:57:09;100167.38;;;8.79;78.67
12781;BME280;6454;43.304;24.344;2023-03-21T02:59:37;100168.22;;;8.79;78.80
12781;BME280;6454;43.304;24.344;2023-03-21T03:02:05;100170.38;;;8.72;78.80
12781;BME280;6454;43.304;24.344;2023-03-21T03:04:33;100169.81;;;8.70;79.14
12781;BME280;6454;43.304;24.344;2023-03-21T03:07:14;100125.00;;;8.39;78.61
12781;BME280;6454;43.304;24.344;2023-03-21T03:09:57;100173.09;;;8.62;78.55
12781;BME280;6454;43.304;24.344;2023-03-21T03:12:36;100167.13;;;8.65;78.81
12781;BME280;6454;43.304;24.344;2023-03-21T03:15:15;100169.03;;;8.65;79.13
12781;BME280;6454;43.304;24.344;2023-03-21T03:17:50;100164.19;;;8.67;78.99
12781;BME280;6454;43.304;24.344;2023-03-21T03:20:24;100163.34;;;8.66;79.09
12781;BME280;6454;43.304;24.344;2023-03-21T03:23:02;100154.19;;;8.62;78.95
12781;BME280;6454;43.304;24.344;2023-03-21T03:25:36;100158.22;;;8.65;78.84
12781;BME280;6454;43.304;24.344;2023-03-21T03:28:07;100149.03;;;8.66;79.00
12781;BME280;6454;43.304;24.344;2023-03-21T03:30:36;100098.00;;;8.34;78.37
12781;BME280;6454;43.304;24.344;2023-03-21T03:33:05;100139.56;;;8.53;79.00
12781;BME280;6454;43.304;24.344;2023-03-21T03:35:34;100140.66;;;8.57;78.78
12781;BME280;6454;43.304;24.344;2023-03-21T03:38:05;100142.03;;;8.55;78.55
12781;BME280;6454;43.304;24.344;2023-03-21T03:40:38;100133.94;;;8.50;78.71
12781;BME280;6454;43.304;24.344;2023-03-21T03:43:09;100137.41;;;8.50;78.21
12781;BME280;6454;43.304;24.344;2023-03-21T03:45:42;100132.59;;;8.42;78.46
12781;BME280;6454;43.304;24.344;2023-03-21T03:48:15;100040.47;;;7.78;78.02
12781;BME280;6454;43.304;24.344;2023-03-21T03:50:47;100142.84;;;8.25;78.01
12781;BME280;6454;43.304;24.344;2023-03-21T03:53:21;100145.25;;;8.16;78.72
12781;BME280;6454;43.304;24.344;2023-03-21T03:55:50;100136.63;;;8.04;78.88
12781;BME280;6454;43.304;24.344;2023-03-21T03:58:19;100141.50;;;8.02;78.82
12781;BME280;6454;43.304;24.344;2023-03-21T04:00:46;100140.13;;;8.00;78.34
12781;BME280;6454;43.304;24.344;2023-03-21T04:03:14;100099.28;;;7.51;78.42
12781;BME280;6454;43.304;24.344;2023-03-21T04:05:41;100083.91;;;7.41;78.46
12781;BME280;6454;43.304;24.344;2023-03-21T04:08:11;100137.94;;;7.66;77.97
12781;BME280;6454;43.304;24.344;2023-03-21T04:10:39;100161.94;;;7.68;78.45
12781;BME280;6454;43.304;24.344;2023-03-21T04:13:06;100160.59;;;7.70;78.01
12781;BME280;6454;43.304;24.344;2023-03-21T04:15:33;100156.00;;;7.66;77.85
12781;BME280;6454;43.304;24.344;2023-03-21T04:18:00;100156.50;;;7.53;78.09
12781;BME280;6454;43.304;24.344;2023-03-21T04:20:27;100151.13;;;7.53;77.90
12781;BME280;6454;43.304;24.344;2023-03-21T04:22:54;100153.78;;;7.33;78.29
12781;BME280;6454;43.304;24.344;2023-03-21T04:25:20;100155.13;;;7.35;77.93
12781;BME280;6454;43.304;24.344;2023-03-21T04:27:49;100147.03;;;7.30;77.55
12781;BME280;6454;43.304;24.344;2023-03-21T04:30:16;100148.88;;;7.25;77.38
12781;BME280;6454;43.304;24.344;2023-03-21T04:32:44;100059.91;;;6.63;78.12
12781;BME280;6454;43.304;24.344;2023-03-21T04:35:12;100143.09;;;7.01;78.28
12781;BME280;6454;43.304;24.344;2023-03-21T04:37:38;100150.38;;;6.95;78.84
12781;BME280;6454;43.304;24.344;2023-03-21T04:40:06;100160.06;;;6.91;79.05
12781;BME280;6454;43.304;24.344;2023-03-21T04:42:35;100160.84;;;6.87;79.18
12781;BME280;6454;43.304;24.344;2023-03-21T04:45:03;100169.47;;;6.89;79.65
12781;BME280;6454;43.304;24.344;2023-03-21T04:47:31;100168.38;;;6.85;79.74
12781;BME280;6454;43.304;24.344;2023-03-21T04:49:58;100167.28;;;6.81;79.13
12781;BME280;6454;43.304;24.344;2023-03-21T04:52:25;100174.84;;;6.84;79.14
12781;BME280;6454;43.304;24.344;2023-03-21T04:54:52;100173.19;;;6.73;79.19
12781;BME280;6454;43.304;24.344;2023-03-21T04:57:19;100177.53;;;6.84;79.09
12781;BME280;6454;43.304;24.344;2023-03-21T04:59:45;100185.09;;;6.82;79.34
12781;BME280;6454;43.304;24.344;2023-03-21T05:02:13;100180.25;;;6.84;79.14
12781;BME280;6454;43.304;24.344;2023-03-21T05:04:40;100179.97;;;6.80;79.34
12781;BME280;6454;43.304;24.344;2023-03-21T05:07:07;100187.22;;;6.75;79.37
12781;BME280;6454;43.304;24.344;2023-03-21T05:09:34;100194.25;;;6.86;78.95
12781;BME280;6454;43.304;24.344;2023-03-21T05:12:01;100191.59;;;6.91;78.48
12781;BME280;6454;43.304;24.344;2023-03-21T05:14:28;100195.41;;;6.95;78.27
12781;BME280;6454;43.304;24.344;2023-03-21T05:16:55;100195.44;;;7.00;78.23
12781;BME280;6454;43.304;24.344;2023-03-21T05:19:26;100189.50;;;6.98;78.90
12781;BME280;6454;43.304;24.344;2023-03-21T05:21:59;100129.44;;;6.66;78.92
12781;BME280;6454;43.304;24.344;2023-03-21T05:24:29;100185.25;;;7.12;79.21
12781;BME280;6454;43.304;24.344;2023-03-21T05:26:57;100179.06;;;7.17;79.20
12781;BME280;6454;43.304;24.344;2023-03-21T05:29:27;100190.19;;;7.30;79.32
12781;BME280;6454;43.304;24.344;2023-03-21T05:31:54;100203.75;;;7.45;79.62
12781;BME280;6454;43.304;24.344;2023-03-21T05:34:21;100192.44;;;7.58;79.61
12781;BME280;6454;43.304;24.344;2023-03-21T05:36:49;100186.53;;;7.71;80.43
12781;BME280;6454;43.304;24.344;2023-03-21T05:39:16;100163.59;;;7.69;80.26
12781;BME280;6454;43.304;24.344;2023-03-21T05:41:43;100190.91;;;8.08;80.24
12781;BME280;6454;43.304;24.344;2023-03-21T05:44:10;100192.84;;;8.22;80.50
12781;BME280;6454;43.304;24.344;2023-03-21T05:46:37;100195.81;;;8.36;80.19
12781;BME280;6454;43.304;24.344;2023-03-21T05:49:04;100192.59;;;8.49;80.54
12781;BME280;6454;43.304;24.344;2023-03-21T05:51:30;100194.75;;;8.62;80.34
12781;BME280;6454;43.304;24.344;2023-03-21T05:53:58;100181.44;;;8.76;80.66
12781;BME280;6454;43.304;24.344;2023-03-21T05:56:25;100187.94;;;8.90;80.36
12781;BME280;6454;43.304;24.344;2023-03-21T05:58:52;100194.91;;;9.06;80.27
12781;BME280;6454;43.304;24.344;2023-03-21T06:01:19;100190.81;;;9.19;79.92
12781;BME280;6454;43.304;24.344;2023-03-21T06:03:45;100188.88;;;9.34;78.95
12781;BME280;6454;43.304;24.344;2023-03-21T06:06:12;100188.25;;;9.47;78.37
12781;BME280;6454;43.304;24.344;2023-03-21T06:08:39;100196.06;;;9.59;78.49
12781;BME280;6454;43.304;24.344;2023-03-21T06:11:18;100192.44;;;9.73;78.66
12781;BME280;6454;43.304;24.344;2023-03-21T06:13:46;100194.56;;;9.87;78.17
12781;BME280;6454;43.304;24.344;2023-03-21T06:16:13;100192.81;;;10.01;78.24
12781;BME280;6454;43.304;24.344;2023-03-21T06:18:39;100185.44;;;10.16;77.95
12781;BME280;6454;43.304;24.344;2023-03-21T06:21:06;100190.22;;;10.29;77.37
12781;BME280;6454;43.304;24.344;2023-03-21T06:23:33;100178.13;;;10.46;76.58
12781;BME280;6454;43.304;24.344;2023-03-21T06:26:01;100177.94;;;10.66;76.19
12781;BME280;6454;43.304;24.344;2023-03-21T06:28:29;100171.25;;;10.82;75.09
12781;BME280;6454;43.304;24.344;2023-03-21T06:30:56;100165.09;;;11.00;74.24
12781;BME280;6454;43.304;24.344;2023-03-21T06:33:23;100168.75;;;11.14;73.63
12781;BME280;6454;43.304;24.344;2023-03-21T06:35:51;100165.56;;;11.31;72.84
12781;BME280;6454;43.304;24.344;2023-03-21T06:38:18;100162.34;;;11.47;73.04
12781;BME280;6454;43.304;24.344;2023-03-21T06:40:45;100159.44;;;11.62;73.04
12781;BME280;6454;43.304;24.344;2023-03-21T06:43:13;100168.72;;;11.80;71.72
12781;BME280;6454;43.304;24.344;2023-03-21T06:45:42;100162.56;;;11.93;70.50
12781;BME280;6454;43.304;24.344;2023-03-21T06:48:09;100156.38;;;12.06;68.83
12781;BME280;6454;43.304;24.344;2023-03-21T06:50:36;100158.56;;;12.23;68.50
12781;BME280;6454;43.304;24.344;2023-03-21T06:53:02;100151.22;;;12.37;67.99
12781;BME280;6454;43.304;24.344;2023-03-21T06:55:29;100152.38;;;12.50;67.87
12781;BME280;6454;43.304;24.344;2023-03-21T06:57:56;100156.81;;;12.59;66.95
12781;BME280;6454;43.304;24.344;2023-03-21T07:00:23;100147.38;;;12.70;65.36
12781;BME280;6454;43.304;24.344;2023-03-21T07:02:52;100149.91;;;12.80;65.61
12781;BME280;6454;43.304;24.344;2023-03-21T07:05:19;100158.00;;;12.85;65.03
12781;BME280;6454;43.304;24.344;2023-03-21T07:07:46;100150.13;;;12.98;65.61
12781;BME280;6454;43.304;24.344;2023-03-21T07:10:13;100100.94;;;12.80;65.77
12781;BME280;6454;43.304;24.344;2023-03-21T07:12:40;100157.72;;;13.28;66.13
12781;BME280;6454;43.304;24.344;2023-03-21T07:15:08;100149.63;;;13.36;65.78
12781;BME280;6454;43.304;24.344;2023-03-21T07:17:34;100150.56;;;13.45;65.30
12781;BME280;6454;43.304;24.344;2023-03-21T07:20:03;100105.66;;;13.29;64.05
12781;BME280;6454;43.304;24.344;2023-03-21T07:22:33;100153.81;;;13.70;64.03
12781;BME280;6454;43.304;24.344;2023-03-21T07:25:00;100153.16;;;13.86;64.44
12781;BME280;6454;43.304;24.344;2023-03-21T07:27:26;100157.47;;;14.01;64.16
12781;BME280;6454;43.304;24.344;2023-03-21T07:29:54;100156.91;;;14.12;62.77
12781;BME280;6454;43.304;24.344;2023-03-21T07:32:21;100158.78;;;14.26;62.14
12781;BME280;6454;43.304;24.344;2023-03-21T07:34:48;100162.91;;;14.37;62.08
12781;BME280;6454;43.304;24.344;2023-03-21T07:37:17;100162.16;;;14.45;61.34
12781;BME280;6454;43.304;24.344;2023-03-21T07:39:43;100163.47;;;14.47;60.62
12781;BME280;6454;43.304;24.344;2023-03-21T07:42:10;100149.31;;;14.45;58.81
12781;BME280;6454;43.304;24.344;2023-03-21T07:44:37;100164.84;;;14.67;58.92
12781;BME280;6454;43.304;24.344;2023-03-21T07:47:04;100167.31;;;14.77;58.03
12781;BME280;6454;43.304;24.344;2023-03-21T07:49:31;100166.22;;;14.78;58.30
12781;BME280;6454;43.304;24.344;2023-03-21T07:51:58;100171.53;;;14.83;58.38
12781;BME280;6454;43.304;24.344;2023-03-21T07:54:27;100171.06;;;14.90;57.72
12781;BME280;6454;43.304;24.344;2023-03-21T07:56:55;100168.41;;;14.98;57.20
12781;BME280;6454;43.304;24.344;2023-03-21T07:59:22;100175.44;;;14.99;56.72
12781;BME280;6454;43.304;24.344;2023-03-21T08:01:49;100174.06;;;15.10;57.94
12781;BME280;6454;43.304;24.344;2023-03-21T08:04:16;100181.16;;;15.20;58.00
12781;BME280;6454;43.304;24.344;2023-03-21T08:06:43;100176.72;;;15.32;57.09
12781;BME280;6454;43.304;24.344;2023-03-21T08:09:10;100120.69;;;15.04;56.28
12781;BME280;6454;43.304;24.344;2023-03-21T08:11:42;100164.81;;;15.37;57.67
12781;BME280;6454;43.304;24.344;2023-03-21T08:14:09;100171.13;;;15.46;57.47
12781;BME280;6454;43.304;24.344;2023-03-21T08:16:35;100167.16;;;15.52;57.14
12781;BME280;6454;43.304;24.344;2023-03-21T08:19:02;100176.34;;;15.65;56.13
12781;BME280;6454;43.304;24.344;2023-03-21T08:21:29;100170.88;;;15.73;54.97
12781;BME280;6454;43.304;24.344;2023-03-21T08:23:56;100171.84;;;15.86;55.47
12781;BME280;6454;43.304;24.344;2023-03-21T08:26:22;100168.00;;;15.95;54.57
12781;BME280;6454;43.304;24.344;2023-03-21T08:28:52;100085.88;;;15.44;53.36
12781;BME280;6454;43.304;24.344;2023-03-21T08:31:19;100184.25;;;16.00;54.40
12781;BME280;6454;43.304;24.344;2023-03-21T08:33:47;100174.59;;;16.03;54.11
12781;BME280;6454;43.304;24.344;2023-03-21T08:36:18;100136.16;;;15.82;52.75
12781;BME280;6454;43.304;24.344;2023-03-21T08:38:46;100159.31;;;16.02;53.20
12781;BME280;6454;43.304;24.344;2023-03-21T08:41:13;100175.41;;;16.12;53.23
12781;BME280;6454;43.304;24.344;2023-03-21T08:43:40;100168.31;;;16.11;53.22
12781;BME280;6454;43.304;24.344;2023-03-21T08:46:08;100173.78;;;16.11;53.33
12781;BME280;6454;43.304;24.344;2023-03-21T08:48:35;100170.09;;;16.16;53.98
12781;BME280;6454;43.304;24.344;2023-03-21T08:51:03;100173.16;;;16.14;52.70
12781;BME280;6454;43.304;24.344;2023-03-21T08:53:31;100166.06;;;16.13;52.82
12781;BME280;6454;43.304;24.344;2023-03-21T08:55:58;100162.53;;;16.21;53.03
12781;BME280;6454;43.304;24.344;2023-03-21T08:58:25;100138.53;;;16.01;52.87
12781;BME280;6454;43.304;24.344;2023-03-21T09:00:52;100170.75;;;16.30;52.82
12781;BME280;6454;43.304;24.344;2023-03-21T09:03:20;100171.38;;;16.35;52.81
12781;BME280;6454;43.304;24.344;2023-03-21T09:05:51;100164.91;;;16.48;52.58
12781;BME280;6454;43.304;24.344;2023-03-21T09:08:18;100160.22;;;16.66;53.07
12781;BME280;6454;43.304;24.344;2023-03-21T09:10:47;100160.66;;;16.85;52.34
12781;BME280;6454;43.304;24.344;2023-03-21T09:13:15;100170.59;;;16.98;52.04
12781;BME280;6454;43.304;24.344;2023-03-21T09:15:42;100168.81;;;17.02;51.44
12781;BME280;6454;43.304;24.344;2023-03-21T09:18:09;100163.63;;;17.09;50.64
12781;BME280;6454;43.304;24.344;2023-03-21T09:20:42;100160.53;;;17.11;50.07
12781;BME280;6454;43.304;24.344;2023-03-21T09:23:10;100137.72;;;16.98;50.14
12781;BME280;6454;43.304;24.344;2023-03-21T09:25:37;100151.84;;;17.09;49.59
12781;BME280;6454;43.304;24.344;2023-03-21T09:28:05;100148.13;;;17.13;50.15
12781;BME280;6454;43.304;24.344;2023-03-21T09:30:33;100135.75;;;17.07;49.63
12781;BME280;6454;43.304;24.344;2023-03-21T09:33:01;100131.22;;;17.11;49.15
12781;BME280;6454;43.304;24.344;2023-03-21T09:35:31;100105.53;;;16.87;50.33
12781;BME280;6454;43.304;24.344;2023-03-21T09:38:00;100126.75;;;16.98;50.05
12781;BME280;6454;43.304;24.344;2023-03-21T09:40:42;100130.75;;;17.01;50.72
12781;BME280;6454;43.304;24.344;2023-03-21T09:43:22;100119.81;;;17.01;51.24
12781;BME280;6454;43.304;24.344;2023-03-21T09:45:57;100126.66;;;17.15;50.34
12781;BME280;6454;43.304;24.344;2023-03-21T09:48:35;100120.03;;;17.25;49.86
12781;BME280;6454;43.304;24.344;2023-03-21T09:51:09;99927.88;;;16.01;49.83
12781;BME280;6454;43.304;24.344;2023-03-21T09:53:43;100128.66;;;17.35;49.54
12781;BME280;6454;43.304;24.344;2023-03-21T09:56:12;100130.38;;;17.40;49.88
12781;BME280;6454;43.304;24.344;2023-03-21T09:58:42;100135.19;;;17.52;49.15
12781;BME280;6454;43.304;24.344;2023-03-21T10:01:14;100088.53;;;17.31;50.52
12781;BME280;6454;43.304;24.344;2023-03-21T10:03:47;100135.28;;;17.64;49.36
12781;BME280;6454;43.304;24.344;2023-03-21T10:06:15;100131.72;;;17.63;49.10
12781;BME280;6454;43.304;24.344;2023-03-21T10:08:45;100045.50;;;17.02;48.56
12781;BME280;6454;43.304;24.344;2023-03-21T10:11:16;100130.47;;;17.61;49.30
12781;BME280;6454;43.304;24.344;2023-03-21T10:13:48;100133.84;;;17.58;49.35
12781;BME280;6454;43.304;24.344;2023-03-21T10:16:20;100129.84;;;17.55;49.71
12781;BME280;6454;43.304;24.344;2023-03-21T10:18:48;100125.66;;;17.49;50.36
12781;BME280;6454;43.304;24.344;2023-03-21T10:21:19;100121.78;;;17.50;50.19
12781;BME280;6454;43.304;24.344;2023-03-21T10:23:49;100119.56;;;17.52;50.39
12781;BME280;6454;43.304;24.344;2023-03-21T10:26:18;100119.38;;;17.57;51.44
12781;BME280;6454;43.304;24.344;2023-03-21T10:28:46;100115.00;;;17.56;51.33
12781;BME280;6454;43.304;24.344;2023-03-21T10:31:17;100106.13;;;17.59;51.32
12781;BME280;6454;43.304;24.344;2023-03-21T10:33:47;100102.38;;;17.64;51.47
12781;BME280;6454;43.304;24.344;2023-03-21T10:36:15;100116.03;;;17.72;51.57
12781;BME280;6454;43.304;24.344;2023-03-21T10:38:45;100120.78;;;17.84;51.89
12781;BME280;6454;43.304;24.344;2023-03-21T10:41:14;100117.94;;;17.92;51.15
12781;BME280;6454;43.304;24.344;2023-03-21T10:43:42;100116.47;;;17.95;51.12
12781;BME280;6454;43.304;24.344;2023-03-21T10:46:12;100111.13;;;17.98;50.84
12781;BME280;6454;43.304;24.344;2023-03-21T10:48:43;100102.53;;;18.00;51.48
12781;BME280;6454;43.304;24.344;2023-03-21T10:51:16;100092.63;;;18.08;51.29
12781;BME280;6454;43.304;24.344;2023-03-21T10:53:49;100096.91;;;18.17;52.34
12781;BME280;6454;43.304;24.344;2023-03-21T10:56:22;100029.44;;;17.95;52.26
12781;BME280;6454;43.304;24.344;2023-03-21T10:58:53;100085.31;;;18.44;51.21
12781;BME280;6454;43.304;24.344;2023-03-21T11:01:28;100074.19;;;18.41;50.73
12781;BME280;6454;43.304;24.344;2023-03-21T11:03:59;100083.88;;;18.26;50.39
12781;BME280;6454;43.304;24.344;2023-03-21T11:06:28;100068.75;;;18.20;49.08
12781;BME280;6454;43.304;24.344;2023-03-21T11:09:00;100060.41;;;18.17;49.33
12781;BME280;6454;43.304;24.344;2023-03-21T11:11:35;100052.28;;;18.20;49.15
12781;BME280;6454;43.304;24.344;2023-03-21T11:14:06;100050.22;;;18.17;48.36
12781;BME280;6454;43.304;24.344;2023-03-21T11:16:38;100041.19;;;18.17;48.48
12781;BME280;6454;43.304;24.344;2023-03-21T11:19:14;100039.56;;;18.16;49.00
12781;BME280;6454;43.304;24.344;2023-03-21T11:21:41;100043.06;;;18.25;49.41
12781;BME280;6454;43.304;24.344;2023-03-21T11:24:12;100042.78;;;18.18;49.06
12781;BME280;6454;43.304;24.344;2023-03-21T11:26:43;99984.38;;;17.84;49.20
12781;BME280;6454;43.304;24.344;2023-03-21T11:29:25;100038.34;;;18.25;49.73
12781;BME280;6454;43.304;24.344;2023-03-21T11:31:57;100042.50;;;18.43;49.52
12781;BME280;6454;43.304;24.344;2023-03-21T11:34:29;100029.13;;;18.42;49.85
12781;BME280;6454;43.304;24.344;2023-03-21T11:37:00;99978.97;;;18.21;49.15
12781;BME280;6454;43.304;24.344;2023-03-21T11:39:33;99983.09;;;18.39;49.09
12781;BME280;6454;43.304;24.344;2023-03-21T11:42:03;100010.84;;;18.70;47.96
12781;BME280;6454;43.304;24.344;2023-03-21T11:44:32;100012.00;;;18.81;48.27
12781;BME280;6454;43.304;24.344;2023-03-21T11:47:00;100007.41;;;18.85;47.27
12781;BME280;6454;43.304;24.344;2023-03-21T11:49:28;100009.00;;;18.86;48.29
12781;BME280;6454;43.304;24.344;2023-03-21T11:52:05;99925.44;;;18.27;47.44
12781;BME280;6454;43.304;24.344;2023-03-21T11:54:48;100021.59;;;18.75;48.91
12781;BME280;6454;43.304;24.344;2023-03-21T11:57:25;100020.47;;;18.76;48.03
12781;BME280;6454;43.304;24.344;2023-03-21T12:00:03;100020.34;;;18.73;46.85
12781;BME280;6454;43.304;24.344;2023-03-21T12:05:52;100021.38;;;18.68;48.58
12781;BME280;6454;43.304;24.344;2023-03-21T12:08:29;99972.59;;;18.53;48.88
12781;BME280;6454;43.304;24.344;2023-03-21T12:11:07;100012.44;;;18.83;49.39
12781;BME280;6454;43.304;24.344;2023-03-21T12:13:51;100002.69;;;18.98;48.41
12781;BME280;6454;43.304;24.344;2023-03-21T12:16:27;99995.59;;;19.09;47.77
12781;BME280;6454;43.304;24.344;2023-03-21T12:19:10;99996.25;;;19.18;48.08
12781;BME280;6454;43.304;24.344;2023-03-21T12:21:44;100000.16;;;19.17;48.19
12781;BME280;6454;43.304;24.344;2023-03-21T12:24:17;100009.66;;;19.07;48.52
12781;BME280;6454;43.304;24.344;2023-03-21T12:26:52;100006.94;;;18.95;48.49
12781;BME280;6454;43.304;24.344;2023-03-21T12:29:35;99998.69;;;18.95;47.76
12781;BME280;6454;43.304;24.344;2023-03-21T12:32:17;99993.88;;;18.92;47.83
12781;BME280;6454;43.304;24.344;2023-03-21T12:35:16;99989.53;;;18.91;48.81
12781;BME280;6454;43.304;24.344;2023-03-21T12:37:52;99992.75;;;18.93;47.50
12781;BME280;6454;43.304;24.344;2023-03-21T12:40:43;99990.56;;;18.99;48.19
12781;BME280;6454;43.304;24.344;2023-03-21T12:43:30;99983.69;;;18.93;47.79
12781;BME280;6454;43.304;24.344;2023-03-21T12:46:03;99974.75;;;18.96;47.44
12781;BME280;6454;43.304;24.344;2023-03-21T12:48:39;99972.44;;;18.98;47.87
12781;BME280;6454;43.304;24.344;2023-03-21T12:51:11;99962.03;;;19.03;47.50
12781;BME280;6454;43.304;24.344;2023-03-21T12:53:52;99964.66;;;19.12;47.04
12781;BME280;6454;43.304;24.344;2023-03-21T12:56:27;99919.81;;;18.84;47.07
12781;BME280;6454;43.304;24.344;2023-03-21T12:58:58;99958.31;;;19.23;46.90
12781;BME280;6454;43.304;24.344;2023-03-21T13:01:29;99917.59;;;19.01;46.94
12781;BME280;6454;43.304;24.344;2023-03-21T13:04:30;99940.56;;;19.21;46.10
12781;BME280;6454;43.304;24.344;2023-03-21T13:06:59;99956.59;;;19.19;46.24
12781;BME280;6454;43.304;24.344;2023-03-21T13:09:33;99956.50;;;19.15;46.66
12781;BME280;6454;43.304;24.344;2023-03-21T13:12:04;99953.97;;;19.10;46.57
12781;BME280;6454;43.304;24.344;2023-03-21T13:14:49;99957.53;;;19.11;46.48
12781;BME280;6454;43.304;24.344;2023-03-21T13:17:24;99945.03;;;19.13;46.84
12781;BME280;6454;43.304;24.344;2023-03-21T13:19:57;99946.19;;;19.12;46.78
12781;BME280;6454;43.304;24.344;2023-03-21T13:22:30;99949.50;;;19.18;46.71
12781;BME280;6454;43.304;24.344;2023-03-21T13:24:59;99922.28;;;19.01;46.34